sensor_id;sensor_type;location;lat;lon;timestamp;P1;durP1;ratioP1;P2;durP2;ratioP2
7703;SDS011;3894;49.700;10.770;2022-07-29T00:00:13;4.35;;;2.22;;
7703;SDS011;3894;49.700;10.770;2022-07-29T00:02:39;5.15;;;2.33;;
7703;SDS011;3894;49.700;10.770;2022-07-29T00:05:05;4.97;;;2.20;;
7703;SDS011;3894;49.700;10.770;2022-07-29T00:07:32;5.90;;;2.28;;
7703;SDS011;3894;49.700;10.770;2022-07-29T00:09:58;5.15;;;2.45;;
7703;SDS011;3894;49.700;10.770;2022-07-29T00:12:24;3.58;;;2.17;;
7703;SDS011;3894;49.700;10.770;2022-07-29T00:14:50;5.18;;;2.10;;
7703;SDS011;3894;49.700;10.770;2022-07-29T00:17:15;3.42;;;2.03;;
7703;SDS011;3894;49.700;10.770;2022-07-29T00:19:41;4.90;;;2.28;;
7703;SDS011;3894;49.700;10.770;2022-07-29T00:22:07;5.63;;;2.25;;
7703;SDS011;3894;49.700;10.770;2022-07-29T00:24:32;3.47;;;2.15;;
7703;SDS011;3894;49.700;10.770;2022-07-29T00:26:58;3.17;;;2.00;;
7703;SDS011;3894;49.700;10.770;2022-07-29T00:29:23;3.75;;;2.28;;
7703;SDS011;3894;49.700;10.770;2022-07-29T00:31:49;6.15;;;2.05;;
7703;SDS011;3894;49.700;10.770;2022-07-29T00:34:15;4.97;;;2.13;;
7703;SDS011;3894;49.700;10.770;2022-07-29T00:37:00;3.85;;;2.25;;
7703;SDS011;3894;49.700;10.770;2022-07-29T00:39:25;3.83;;;2.10;;
7703;SDS011;3894;49.700;10.770;2022-07-29T00:41:51;5.00;;;2.20;;
7703;SDS011;3894;49.700;10.770;2022-07-29T00:44:17;4.15;;;2.17;;
7703;SDS011;3894;49.700;10.770;2022-07-29T00:46:42;3.80;;;2.15;;
7703;SDS011;3894;49.700;10.770;2022-07-29T00:49:08;6.63;;;2.20;;
7703;SDS011;3894;49.700;10.770;2022-07-29T00:51:37;4.38;;;2.22;;
7703;SDS011;3894;49.700;10.770;2022-07-29T00:54:03;5.97;;;2.38;;
7703;SDS011;3894;49.700;10.770;2022-07-29T00:56:32;4.97;;;2.42;;
7703;SDS011;3894;49.700;10.770;2022-07-29T00:58:59;4.70;;;2.22;;
7703;SDS011;3894;49.700;10.770;2022-07-29T01:01:25;6.00;;;2.28;;
7703;SDS011;3894;49.700;10.770;2022-07-29T01:03:51;3.03;;;2.00;;
7703;SDS011;3894;49.700;10.770;2022-07-29T01:06:18;4.55;;;2.30;;
7703;SDS011;3894;49.700;10.770;2022-07-29T01:08:44;5.20;;;2.30;;
7703;SDS011;3894;49.700;10.770;2022-07-29T01:11:12;3.10;;;2.05;;
7703;SDS011;3894;49.700;10.770;2022-07-29T01:13:38;4.07;;;2.30;;
7703;SDS011;3894;49.700;10.770;2022-07-29T01:16:10;3.40;;;2.33;;
7703;SDS011;3894;49.700;10.770;2022-07-29T01:18:44;5.43;;;2.05;;
7703;SDS011;3894;49.700;10.770;2022-07-29T01:26:52;4.93;;;2.35;;
7703;SDS011;3894;49.700;10.770;2022-07-29T01:31:58;3.28;;;2.30;;
7703;SDS011;3894;49.700;10.770;2022-07-29T01:34:41;4.03;;;2.35;;
7703;SDS011;3894;49.700;10.770;2022-07-29T01:37:17;6.32;;;2.30;;
7703;SDS011;3894;49.700;10.770;2022-07-29T01:39:55;3.58;;;2.38;;
7703;SDS011;3894;49.700;10.770;2022-07-29T01:45:25;3.45;;;2.25;;
7703;SDS011;3894;49.700;10.770;2022-07-29T01:48:10;4.97;;;2.22;;
7703;SDS011;3894;49.700;10.770;2022-07-29T01:50:42;4.25;;;2.35;;
7703;SDS011;3894;49.700;10.770;2022-07-29T01:53:23;3.42;;;2.10;;
7703;SDS011;3894;49.700;10.770;2022-07-29T01:55:59;3.92;;;2.20;;
7703;SDS011;3894;49.700;10.770;2022-07-29T01:58:26;3.90;;;2.17;;
7703;SDS011;3894;49.700;10.770;2022-07-29T02:00:55;4.30;;;2.15;;
7703;SDS011;3894;49.700;10.770;2022-07-29T02:03:22;4.32;;;2.50;;
7703;SDS011;3894;49.700;10.770;2022-07-29T02:05:48;4.65;;;2.20;;
7703;SDS011;3894;49.700;10.770;2022-07-29T02:08:16;4.35;;;2.30;;
7703;SDS011;3894;49.700;10.770;2022-07-29T02:10:44;4.43;;;2.20;;
7703;SDS011;3894;49.700;10.770;2022-07-29T02:13:12;4.32;;;2.28;;
7703;SDS011;3894;49.700;10.770;2022-07-29T02:15:40;4.22;;;2.83;;
7703;SDS011;3894;49.700;10.770;2022-07-29T02:18:08;5.45;;;2.53;;
7703;SDS011;3894;49.700;10.770;2022-07-29T02:20:37;5.55;;;2.63;;
7703;SDS011;3894;49.700;10.770;2022-07-29T02:23:06;4.57;;;2.63;;
7703;SDS011;3894;49.700;10.770;2022-07-29T02:25:35;3.75;;;2.45;;
7703;SDS011;3894;49.700;10.770;2022-07-29T02:28:02;4.43;;;2.35;;
7703;SDS011;3894;49.700;10.770;2022-07-29T02:30:28;5.30;;;2.38;;
7703;SDS011;3894;49.700;10.770;2022-07-29T02:32:56;3.85;;;2.25;;
7703;SDS011;3894;49.700;10.770;2022-07-29T02:35:22;4.80;;;2.35;;
7703;SDS011;3894;49.700;10.770;2022-07-29T02:37:48;4.20;;;2.65;;
7703;SDS011;3894;49.700;10.770;2022-07-29T02:40:36;5.60;;;2.53;;
7703;SDS011;3894;49.700;10.770;2022-07-29T02:43:05;5.45;;;2.65;;
7703;SDS011;3894;49.700;10.770;2022-07-29T02:45:33;4.60;;;2.58;;
7703;SDS011;3894;49.700;10.770;2022-07-29T02:48:00;5.20;;;2.50;;
7703;SDS011;3894;49.700;10.770;2022-07-29T02:50:37;4.28;;;2.17;;
7703;SDS011;3894;49.700;10.770;2022-07-29T02:53:11;5.32;;;2.60;;
7703;SDS011;3894;49.700;10.770;2022-07-29T02:55:43;5.68;;;2.70;;
7703;SDS011;3894;49.700;10.770;2022-07-29T02:58:36;5.25;;;2.55;;
7703;SDS011;3894;49.700;10.770;2022-07-29T03:01:03;3.83;;;2.30;;
7703;SDS011;3894;49.700;10.770;2022-07-29T03:03:34;5.57;;;2.80;;
7703;SDS011;3894;49.700;10.770;2022-07-29T03:06:03;5.90;;;2.60;;
7703;SDS011;3894;49.700;10.770;2022-07-29T03:08:29;4.38;;;2.58;;
7703;SDS011;3894;49.700;10.770;2022-07-29T03:10:57;4.75;;;2.83;;
7703;SDS011;3894;49.700;10.770;2022-07-29T03:13:23;6.63;;;2.50;;
7703;SDS011;3894;49.700;10.770;2022-07-29T03:15:49;5.25;;;2.95;;
7703;SDS011;3894;49.700;10.770;2022-07-29T03:18:16;5.65;;;2.50;;
7703;SDS011;3894;49.700;10.770;2022-07-29T03:20:41;3.47;;;2.50;;
7703;SDS011;3894;49.700;10.770;2022-07-29T03:23:07;5.80;;;2.65;;
7703;SDS011;3894;49.700;10.770;2022-07-29T03:25:33;4.97;;;2.58;;
7703;SDS011;3894;49.700;10.770;2022-07-29T03:27:59;4.60;;;2.40;;
7703;SDS011;3894;49.700;10.770;2022-07-29T03:30:24;4.55;;;2.53;;
7703;SDS011;3894;49.700;10.770;2022-07-29T03:32:50;4.50;;;2.28;;
7703;SDS011;3894;49.700;10.770;2022-07-29T03:35:17;3.60;;;2.53;;
7703;SDS011;3894;49.700;10.770;2022-07-29T03:37:44;4.78;;;2.40;;
7703;SDS011;3894;49.700;10.770;2022-07-29T03:40:11;2.88;;;2.28;;
7703;SDS011;3894;49.700;10.770;2022-07-29T03:42:39;4.15;;;2.40;;
7703;SDS011;3894;49.700;10.770;2022-07-29T03:45:07;5.47;;;2.67;;
7703;SDS011;3894;49.700;10.770;2022-07-29T03:47:36;4.80;;;2.42;;
7703;SDS011;3894;49.700;10.770;2022-07-29T03:50:06;4.38;;;2.90;;
7703;SDS011;3894;49.700;10.770;2022-07-29T03:52:33;4.45;;;2.42;;
7703;SDS011;3894;49.700;10.770;2022-07-29T03:54:59;5.53;;;2.53;;
7703;SDS011;3894;49.700;10.770;2022-07-29T03:57:27;4.70;;;2.45;;
7703;SDS011;3894;49.700;10.770;2022-07-29T03:59:55;4.75;;;2.63;;
7703;SDS011;3894;49.700;10.770;2022-07-29T04:02:22;4.55;;;2.55;;
7703;SDS011;3894;49.700;10.770;2022-07-29T04:04:50;5.47;;;2.83;;
7703;SDS011;3894;49.700;10.770;2022-07-29T04:07:16;5.13;;;3.17;;
7703;SDS011;3894;49.700;10.770;2022-07-29T04:09:42;5.65;;;3.20;;
7703;SDS011;3894;49.700;10.770;2022-07-29T04:12:07;4.85;;;2.90;;
7703;SDS011;3894;49.700;10.770;2022-07-29T04:14:33;5.50;;;2.92;;
7703;SDS011;3894;49.700;10.770;2022-07-29T04:17:00;5.07;;;2.92;;
7703;SDS011;3894;49.700;10.770;2022-07-29T04:19:27;4.57;;;2.85;;
7703;SDS011;3894;49.700;10.770;2022-07-29T04:21:52;7.57;;;3.25;;
7703;SDS011;3894;49.700;10.770;2022-07-29T04:24:18;6.65;;;2.75;;
7703;SDS011;3894;49.700;10.770;2022-07-29T04:26:45;4.22;;;2.80;;
7703;SDS011;3894;49.700;10.770;2022-07-29T04:29:11;6.18;;;2.45;;
7703;SDS011;3894;49.700;10.770;2022-07-29T04:31:37;5.03;;;2.80;;
7703;SDS011;3894;49.700;10.770;2022-07-29T04:34:02;6.85;;;2.95;;
7703;SDS011;3894;49.700;10.770;2022-07-29T04:36:28;9.05;;;3.30;;
7703;SDS011;3894;49.700;10.770;2022-07-29T04:38:56;4.90;;;2.80;;
7703;SDS011;3894;49.700;10.770;2022-07-29T04:41:22;4.13;;;3.00;;
7703;SDS011;3894;49.700;10.770;2022-07-29T04:43:48;5.97;;;3.25;;
7703;SDS011;3894;49.700;10.770;2022-07-29T04:46:14;5.78;;;3.05;;
7703;SDS011;3894;49.700;10.770;2022-07-29T04:48:39;6.40;;;3.10;;
7703;SDS011;3894;49.700;10.770;2022-07-29T04:51:05;6.40;;;3.05;;
7703;SDS011;3894;49.700;10.770;2022-07-29T04:53:31;8.52;;;3.35;;
7703;SDS011;3894;49.700;10.770;2022-07-29T04:55:56;5.88;;;3.38;;
7703;SDS011;3894;49.700;10.770;2022-07-29T04:58:22;5.47;;;3.40;;
7703;SDS011;3894;49.700;10.770;2022-07-29T05:00:48;6.22;;;3.38;;
7703;SDS011;3894;49.700;10.770;2022-07-29T05:03:14;6.97;;;3.40;;
7703;SDS011;3894;49.700;10.770;2022-07-29T05:05:40;7.88;;;3.10;;
7703;SDS011;3894;49.700;10.770;2022-07-29T05:08:06;7.88;;;3.25;;
7703;SDS011;3894;49.700;10.770;2022-07-29T05:10:34;6.32;;;2.92;;
7703;SDS011;3894;49.700;10.770;2022-07-29T05:13:06;5.95;;;3.17;;
7703;SDS011;3894;49.700;10.770;2022-07-29T05:15:33;5.15;;;2.90;;
7703;SDS011;3894;49.700;10.770;2022-07-29T05:18:00;5.40;;;2.90;;
7703;SDS011;3894;49.700;10.770;2022-07-29T05:20:26;4.30;;;2.85;;
7703;SDS011;3894;49.700;10.770;2022-07-29T05:22:57;9.40;;;2.83;;
7703;SDS011;3894;49.700;10.770;2022-07-29T05:25:24;6.75;;;3.30;;
7703;SDS011;3894;49.700;10.770;2022-07-29T05:27:54;4.45;;;3.08;;
7703;SDS011;3894;49.700;10.770;2022-07-29T05:30:20;8.13;;;3.20;;
7703;SDS011;3894;49.700;10.770;2022-07-29T05:32:46;6.00;;;3.17;;
7703;SDS011;3894;49.700;10.770;2022-07-29T05:35:12;4.95;;;3.35;;
7703;SDS011;3894;49.700;10.770;2022-07-29T05:37:38;5.35;;;2.67;;
7703;SDS011;3894;49.700;10.770;2022-07-29T05:40:04;7.88;;;3.08;;
7703;SDS011;3894;49.700;10.770;2022-07-29T05:42:30;7.20;;;2.90;;
7703;SDS011;3894;49.700;10.770;2022-07-29T05:44:56;6.55;;;3.10;;
7703;SDS011;3894;49.700;10.770;2022-07-29T05:47:22;6.38;;;3.53;;
7703;SDS011;3894;49.700;10.770;2022-07-29T05:49:48;8.23;;;3.22;;
7703;SDS011;3894;49.700;10.770;2022-07-29T05:52:13;7.40;;;3.28;;
7703;SDS011;3894;49.700;10.770;2022-07-29T05:54:39;6.35;;;3.03;;
7703;SDS011;3894;49.700;10.770;2022-07-29T05:57:05;5.78;;;3.10;;
7703;SDS011;3894;49.700;10.770;2022-07-29T05:59:34;6.57;;;2.83;;
7703;SDS011;3894;49.700;10.770;2022-07-29T06:02:01;8.07;;;2.92;;
7703;SDS011;3894;49.700;10.770;2022-07-29T06:04:27;5.35;;;2.65;;
7703;SDS011;3894;49.700;10.770;2022-07-29T06:06:52;6.25;;;2.80;;
7703;SDS011;3894;49.700;10.770;2022-07-29T06:09:18;6.18;;;3.05;;
7703;SDS011;3894;49.700;10.770;2022-07-29T06:11:44;7.25;;;3.05;;
7703;SDS011;3894;49.700;10.770;2022-07-29T06:14:09;5.85;;;2.83;;
7703;SDS011;3894;49.700;10.770;2022-07-29T06:16:35;7.90;;;3.08;;
7703;SDS011;3894;49.700;10.770;2022-07-29T06:19:01;3.75;;;2.70;;
7703;SDS011;3894;49.700;10.770;2022-07-29T06:21:27;4.70;;;2.70;;
7703;SDS011;3894;49.700;10.770;2022-07-29T06:23:52;7.90;;;2.90;;
7703;SDS011;3894;49.700;10.770;2022-07-29T06:26:18;6.15;;;2.83;;
7703;SDS011;3894;49.700;10.770;2022-07-29T06:28:44;5.00;;;2.78;;
7703;SDS011;3894;49.700;10.770;2022-07-29T06:31:09;7.32;;;2.80;;
7703;SDS011;3894;49.700;10.770;2022-07-29T06:33:35;5.50;;;2.55;;
7703;SDS011;3894;49.700;10.770;2022-07-29T06:36:02;7.32;;;2.95;;
7703;SDS011;3894;49.700;10.770;2022-07-29T06:38:29;5.95;;;2.78;;
7703;SDS011;3894;49.700;10.770;2022-07-29T06:40:55;8.18;;;2.90;;
7703;SDS011;3894;49.700;10.770;2022-07-29T06:43:38;6.30;;;2.50;;
7703;SDS011;3894;49.700;10.770;2022-07-29T06:46:09;6.60;;;2.83;;
7703;SDS011;3894;49.700;10.770;2022-07-29T06:48:37;6.03;;;2.78;;
7703;SDS011;3894;49.700;10.770;2022-07-29T06:51:04;5.45;;;2.42;;
7703;SDS011;3894;49.700;10.770;2022-07-29T06:53:30;5.53;;;2.50;;
7703;SDS011;3894;49.700;10.770;2022-07-29T06:55:57;4.53;;;2.30;;
7703;SDS011;3894;49.700;10.770;2022-07-29T06:58:24;4.93;;;2.50;;
7703;SDS011;3894;49.700;10.770;2022-07-29T07:00:50;4.93;;;2.40;;
7703;SDS011;3894;49.700;10.770;2022-07-29T07:03:16;4.60;;;2.42;;
7703;SDS011;3894;49.700;10.770;2022-07-29T07:05:45;6.50;;;2.50;;
7703;SDS011;3894;49.700;10.770;2022-07-29T07:08:11;6.72;;;2.60;;
7703;SDS011;3894;49.700;10.770;2022-07-29T07:10:38;5.07;;;2.60;;
7703;SDS011;3894;49.700;10.770;2022-07-29T07:13:07;4.43;;;2.60;;
7703;SDS011;3894;49.700;10.770;2022-07-29T07:15:33;5.43;;;2.55;;
7703;SDS011;3894;49.700;10.770;2022-07-29T07:18:00;5.00;;;2.63;;
7703;SDS011;3894;49.700;10.770;2022-07-29T07:20:25;4.32;;;2.47;;
7703;SDS011;3894;49.700;10.770;2022-07-29T07:22:51;3.33;;;2.35;;
7703;SDS011;3894;49.700;10.770;2022-07-29T07:25:20;5.60;;;2.47;;
7703;SDS011;3894;49.700;10.770;2022-07-29T07:27:48;4.65;;;2.63;;
7703;SDS011;3894;49.700;10.770;2022-07-29T07:30:14;5.38;;;2.45;;
7703;SDS011;3894;49.700;10.770;2022-07-29T07:32:40;4.22;;;2.67;;
7703;SDS011;3894;49.700;10.770;2022-07-29T07:35:06;5.93;;;2.55;;
7703;SDS011;3894;49.700;10.770;2022-07-29T07:37:33;4.80;;;2.65;;
7703;SDS011;3894;49.700;10.770;2022-07-29T07:40:00;4.13;;;2.55;;
7703;SDS011;3894;49.700;10.770;2022-07-29T07:42:29;4.57;;;2.70;;
7703;SDS011;3894;49.700;10.770;2022-07-29T07:44:55;5.10;;;2.33;;
7703;SDS011;3894;49.700;10.770;2022-07-29T07:47:20;35.95;;;5.68;;
7703;SDS011;3894;49.700;10.770;2022-07-29T07:49:51;53.20;;;7.75;;
7703;SDS011;3894;49.700;10.770;2022-07-29T07:52:18;20.85;;;3.65;;
7703;SDS011;3894;49.700;10.770;2022-07-29T07:54:45;8.77;;;2.80;;
7703;SDS011;3894;49.700;10.770;2022-07-29T07:57:11;4.90;;;2.80;;
7703;SDS011;3894;49.700;10.770;2022-07-29T07:59:38;4.50;;;2.15;;
7703;SDS011;3894;49.700;10.770;2022-07-29T08:02:04;7.80;;;2.80;;
7703;SDS011;3894;49.700;10.770;2022-07-29T08:04:29;5.47;;;2.63;;
7703;SDS011;3894;49.700;10.770;2022-07-29T08:06:55;4.85;;;2.53;;
7703;SDS011;3894;49.700;10.770;2022-07-29T08:09:22;8.18;;;2.50;;
7703;SDS011;3894;49.700;10.770;2022-07-29T08:11:49;5.93;;;2.60;;
7703;SDS011;3894;49.700;10.770;2022-07-29T08:14:15;5.03;;;2.50;;
7703;SDS011;3894;49.700;10.770;2022-07-29T08:16:41;5.63;;;2.70;;
7703;SDS011;3894;49.700;10.770;2022-07-29T08:19:10;7.70;;;2.78;;
7703;SDS011;3894;49.700;10.770;2022-07-29T08:21:36;5.20;;;2.95;;
7703;SDS011;3894;49.700;10.770;2022-07-29T08:24:02;5.20;;;3.03;;
7703;SDS011;3894;49.700;10.770;2022-07-29T08:26:47;5.60;;;2.90;;
7703;SDS011;3894;49.700;10.770;2022-07-29T08:29:13;5.65;;;2.80;;
7703;SDS011;3894;49.700;10.770;2022-07-29T08:31:39;5.05;;;2.72;;
7703;SDS011;3894;49.700;10.770;2022-07-29T08:34:08;5.15;;;2.83;;
7703;SDS011;3894;49.700;10.770;2022-07-29T08:36:34;5.32;;;3.03;;
7703;SDS011;3894;49.700;10.770;2022-07-29T08:39:00;5.68;;;3.00;;
7703;SDS011;3894;49.700;10.770;2022-07-29T08:41:27;5.15;;;3.05;;
7703;SDS011;3894;49.700;10.770;2022-07-29T08:43:53;4.45;;;3.08;;
7703;SDS011;3894;49.700;10.770;2022-07-29T08:46:19;5.38;;;3.00;;
7703;SDS011;3894;49.700;10.770;2022-07-29T08:48:45;5.88;;;2.85;;
7703;SDS011;3894;49.700;10.770;2022-07-29T08:51:14;5.47;;;2.88;;
7703;SDS011;3894;49.700;10.770;2022-07-29T08:53:42;7.05;;;3.20;;
7703;SDS011;3894;49.700;10.770;2022-07-29T08:56:12;6.20;;;2.63;;
7703;SDS011;3894;49.700;10.770;2022-07-29T08:58:38;5.28;;;2.78;;
7703;SDS011;3894;49.700;10.770;2022-07-29T09:01:04;4.43;;;3.05;;
7703;SDS011;3894;49.700;10.770;2022-07-29T09:03:32;6.18;;;3.22;;
7703;SDS011;3894;49.700;10.770;2022-07-29T09:06:03;5.55;;;3.08;;
7703;SDS011;3894;49.700;10.770;2022-07-29T09:08:33;4.45;;;2.90;;
7703;SDS011;3894;49.700;10.770;2022-07-29T09:11:00;6.20;;;3.05;;
7703;SDS011;3894;49.700;10.770;2022-07-29T09:13:27;6.72;;;3.00;;
7703;SDS011;3894;49.700;10.770;2022-07-29T09:15:52;6.93;;;3.00;;
7703;SDS011;3894;49.700;10.770;2022-07-29T09:18:34;8.27;;;3.35;;
7703;SDS011;3894;49.700;10.770;2022-07-29T09:21:00;4.53;;;2.83;;
7703;SDS011;3894;49.700;10.770;2022-07-29T09:26:31;4.68;;;3.05;;
7703;SDS011;3894;49.700;10.770;2022-07-29T09:28:58;5.30;;;2.95;;
7703;SDS011;3894;49.700;10.770;2022-07-29T09:31:34;5.50;;;2.88;;
7703;SDS011;3894;49.700;10.770;2022-07-29T09:34:02;6.55;;;3.40;;
7703;SDS011;3894;49.700;10.770;2022-07-29T09:36:29;6.93;;;3.40;;
7703;SDS011;3894;49.700;10.770;2022-07-29T09:39:02;6.50;;;3.28;;
7703;SDS011;3894;49.700;10.770;2022-07-29T09:41:28;5.80;;;2.75;;
7703;SDS011;3894;49.700;10.770;2022-07-29T09:43:55;6.57;;;3.25;;
7703;SDS011;3894;49.700;10.770;2022-07-29T09:46:22;4.45;;;3.20;;
7703;SDS011;3894;49.700;10.770;2022-07-29T09:49:08;4.50;;;3.03;;
7703;SDS011;3894;49.700;10.770;2022-07-29T09:51:35;4.68;;;2.97;;
7703;SDS011;3894;49.700;10.770;2022-07-29T09:54:00;6.95;;;3.10;;
7703;SDS011;3894;49.700;10.770;2022-07-29T09:56:41;5.40;;;3.30;;
7703;SDS011;3894;49.700;10.770;2022-07-29T09:59:07;4.68;;;2.97;;
7703;SDS011;3894;49.700;10.770;2022-07-29T10:01:33;5.70;;;2.75;;
7703;SDS011;3894;49.700;10.770;2022-07-29T10:04:00;6.28;;;3.30;;
7703;SDS011;3894;49.700;10.770;2022-07-29T10:06:26;4.93;;;2.88;;
7703;SDS011;3894;49.700;10.770;2022-07-29T10:08:53;5.10;;;2.90;;
7703;SDS011;3894;49.700;10.770;2022-07-29T10:11:19;6.70;;;3.13;;
7703;SDS011;3894;49.700;10.770;2022-07-29T10:13:45;6.53;;;3.05;;
7703;SDS011;3894;49.700;10.770;2022-07-29T10:16:13;5.05;;;3.00;;
7703;SDS011;3894;49.700;10.770;2022-07-29T10:18:43;5.78;;;3.00;;
7703;SDS011;3894;49.700;10.770;2022-07-29T10:21:09;4.03;;;2.97;;
7703;SDS011;3894;49.700;10.770;2022-07-29T10:23:35;5.80;;;3.15;;
7703;SDS011;3894;49.700;10.770;2022-07-29T10:26:02;4.68;;;2.90;;
7703;SDS011;3894;49.700;10.770;2022-07-29T10:28:29;9.35;;;3.20;;
7703;SDS011;3894;49.700;10.770;2022-07-29T10:31:08;6.60;;;2.72;;
7703;SDS011;3894;49.700;10.770;2022-07-29T10:34:08;4.80;;;3.10;;
7703;SDS011;3894;49.700;10.770;2022-07-29T10:37:12;5.45;;;3.17;;
7703;SDS011;3894;49.700;10.770;2022-07-29T10:39:55;4.75;;;3.38;;
7703;SDS011;3894;49.700;10.770;2022-07-29T10:42:48;5.32;;;3.25;;
7703;SDS011;3894;49.700;10.770;2022-07-29T10:45:16;4.15;;;3.00;;
7703;SDS011;3894;49.700;10.770;2022-07-29T10:47:42;5.70;;;3.55;;
7703;SDS011;3894;49.700;10.770;2022-07-29T10:50:08;5.68;;;3.30;;
7703;SDS011;3894;49.700;10.770;2022-07-29T10:55:34;3.63;;;3.08;;
7703;SDS011;3894;49.700;10.770;2022-07-29T10:58:13;6.35;;;3.00;;
7703;SDS011;3894;49.700;10.770;2022-07-29T11:00:41;4.90;;;3.47;;
7703;SDS011;3894;49.700;10.770;2022-07-29T11:03:06;4.35;;;3.15;;
7703;SDS011;3894;49.700;10.770;2022-07-29T11:08:19;5.50;;;2.90;;
7703;SDS011;3894;49.700;10.770;2022-07-29T11:10:48;4.13;;;2.90;;
7703;SDS011;3894;49.700;10.770;2022-07-29T11:16:08;4.65;;;2.95;;
7703;SDS011;3894;49.700;10.770;2022-07-29T11:18:34;4.03;;;3.20;;
7703;SDS011;3894;49.700;10.770;2022-07-29T11:21:00;5.07;;;3.40;;
7703;SDS011;3894;49.700;10.770;2022-07-29T11:23:29;4.97;;;3.10;;
7703;SDS011;3894;49.700;10.770;2022-07-29T11:31:31;4.40;;;3.05;;
7703;SDS011;3894;49.700;10.770;2022-07-29T11:39:39;5.75;;;3.15;;
7703;SDS011;3894;49.700;10.770;2022-07-29T11:44:54;3.40;;;2.70;;
7703;SDS011;3894;49.700;10.770;2022-07-29T11:47:24;5.18;;;2.85;;
7703;SDS011;3894;49.700;10.770;2022-07-29T11:49:50;5.65;;;3.10;;
7703;SDS011;3894;49.700;10.770;2022-07-29T11:52:17;5.70;;;3.08;;
7703;SDS011;3894;49.700;10.770;2022-07-29T11:54:44;3.72;;;3.00;;
7703;SDS011;3894;49.700;10.770;2022-07-29T11:57:12;3.28;;;2.70;;
7703;SDS011;3894;49.700;10.770;2022-07-29T11:59:39;5.22;;;3.20;;
7703;SDS011;3894;49.700;10.770;2022-07-29T12:02:06;5.07;;;3.30;;
7703;SDS011;3894;49.700;10.770;2022-07-29T12:04:33;4.00;;;2.58;;
7703;SDS011;3894;49.700;10.770;2022-07-29T12:06:59;4.63;;;3.00;;
7703;SDS011;3894;49.700;10.770;2022-07-29T12:09:25;5.47;;;2.80;;
7703;SDS011;3894;49.700;10.770;2022-07-29T12:11:57;6.63;;;3.13;;
7703;SDS011;3894;49.700;10.770;2022-07-29T12:14:27;4.18;;;2.60;;
7703;SDS011;3894;49.700;10.770;2022-07-29T12:16:53;4.17;;;2.97;;
7703;SDS011;3894;49.700;10.770;2022-07-29T12:19:19;4.07;;;2.92;;
7703;SDS011;3894;49.700;10.770;2022-07-29T12:24:11;5.10;;;2.80;;
7703;SDS011;3894;49.700;10.770;2022-07-29T12:26:36;5.30;;;2.50;;
7703;SDS011;3894;49.700;10.770;2022-07-29T12:29:17;5.47;;;2.88;;
7703;SDS011;3894;49.700;10.770;2022-07-29T12:31:43;5.93;;;2.92;;
7703;SDS011;3894;49.700;10.770;2022-07-29T12:34:10;6.15;;;2.85;;
7703;SDS011;3894;49.700;10.770;2022-07-29T12:36:36;3.60;;;2.65;;
7703;SDS011;3894;49.700;10.770;2022-07-29T12:39:03;3.58;;;2.22;;
7703;SDS011;3894;49.700;10.770;2022-07-29T12:41:29;7.72;;;3.42;;
7703;SDS011;3894;49.700;10.770;2022-07-29T12:43:55;5.53;;;2.63;;
7703;SDS011;3894;49.700;10.770;2022-07-29T12:46:21;3.63;;;2.47;;
7703;SDS011;3894;49.700;10.770;2022-07-29T12:48:50;3.38;;;2.47;;
7703;SDS011;3894;49.700;10.770;2022-07-29T12:51:31;4.75;;;2.50;;
7703;SDS011;3894;49.700;10.770;2022-07-29T12:54:02;4.85;;;2.55;;
7703;SDS011;3894;49.700;10.770;2022-07-29T12:56:30;4.68;;;2.78;;
7703;SDS011;3894;49.700;10.770;2022-07-29T12:58:56;3.80;;;2.30;;
7703;SDS011;3894;49.700;10.770;2022-07-29T13:01:22;3.60;;;2.90;;
7703;SDS011;3894;49.700;10.770;2022-07-29T13:07:01;5.70;;;3.15;;
7703;SDS011;3894;49.700;10.770;2022-07-29T13:09:41;4.53;;;3.10;;
7703;SDS011;3894;49.700;10.770;2022-07-29T13:12:09;4.82;;;3.38;;
7703;SDS011;3894;49.700;10.770;2022-07-29T13:14:37;5.07;;;3.33;;
7703;SDS011;3894;49.700;10.770;2022-07-29T13:17:10;5.63;;;3.50;;
7703;SDS011;3894;49.700;10.770;2022-07-29T13:19:38;6.10;;;3.30;;
7703;SDS011;3894;49.700;10.770;2022-07-29T13:22:06;6.45;;;3.00;;
7703;SDS011;3894;49.700;10.770;2022-07-29T13:24:48;6.80;;;3.75;;
7703;SDS011;3894;49.700;10.770;2022-07-29T13:27:16;7.45;;;3.40;;
7703;SDS011;3894;49.700;10.770;2022-07-29T13:29:47;5.13;;;3.10;;
7703;SDS011;3894;49.700;10.770;2022-07-29T13:32:16;5.75;;;3.22;;
7703;SDS011;3894;49.700;10.770;2022-07-29T13:34:41;6.57;;;3.28;;
7703;SDS011;3894;49.700;10.770;2022-07-29T13:37:07;5.60;;;3.22;;
7703;SDS011;3894;49.700;10.770;2022-07-29T13:39:33;5.60;;;3.53;;
7703;SDS011;3894;49.700;10.770;2022-07-29T13:41:58;7.35;;;3.40;;
7703;SDS011;3894;49.700;10.770;2022-07-29T13:44:24;5.55;;;3.20;;
7703;SDS011;3894;49.700;10.770;2022-07-29T13:46:49;6.75;;;3.45;;
7703;SDS011;3894;49.700;10.770;2022-07-29T13:49:15;6.20;;;3.28;;
7703;SDS011;3894;49.700;10.770;2022-07-29T13:51:41;7.75;;;3.70;;
7703;SDS011;3894;49.700;10.770;2022-07-29T13:54:06;4.43;;;3.53;;
7703;SDS011;3894;49.700;10.770;2022-07-29T13:56:32;5.47;;;3.28;;
7703;SDS011;3894;49.700;10.770;2022-07-29T13:58:57;4.63;;;3.30;;
7703;SDS011;3894;49.700;10.770;2022-07-29T14:01:23;5.97;;;3.10;;
7703;SDS011;3894;49.700;10.770;2022-07-29T14:03:49;4.75;;;3.10;;
7703;SDS011;3894;49.700;10.770;2022-07-29T14:06:14;3.92;;;3.22;;
7703;SDS011;3894;49.700;10.770;2022-07-29T14:08:40;5.28;;;3.35;;
7703;SDS011;3894;49.700;10.770;2022-07-29T14:11:06;4.60;;;3.25;;
7703;SDS011;3894;49.700;10.770;2022-07-29T14:13:31;6.53;;;3.30;;
7703;SDS011;3894;49.700;10.770;2022-07-29T14:15:57;5.20;;;3.47;;
7703;SDS011;3894;49.700;10.770;2022-07-29T14:18:23;6.53;;;3.20;;
7703;SDS011;3894;49.700;10.770;2022-07-29T14:20:48;4.30;;;3.10;;
7703;SDS011;3894;49.700;10.770;2022-07-29T14:23:15;6.07;;;3.50;;
7703;SDS011;3894;49.700;10.770;2022-07-29T14:25:41;7.72;;;3.25;;
7703;SDS011;3894;49.700;10.770;2022-07-29T14:28:06;5.03;;;3.25;;
7703;SDS011;3894;49.700;10.770;2022-07-29T14:30:32;7.03;;;3.15;;
7703;SDS011;3894;49.700;10.770;2022-07-29T14:32:57;5.65;;;3.10;;
7703;SDS011;3894;49.700;10.770;2022-07-29T14:35:23;4.03;;;3.30;;
7703;SDS011;3894;49.700;10.770;2022-07-29T14:37:49;5.00;;;3.45;;
7703;SDS011;3894;49.700;10.770;2022-07-29T14:40:24;7.75;;;3.58;;
7703;SDS011;3894;49.700;10.770;2022-07-29T14:42:50;6.68;;;3.75;;
7703;SDS011;3894;49.700;10.770;2022-07-29T14:45:16;6.95;;;4.60;;
7703;SDS011;3894;49.700;10.770;2022-07-29T14:47:42;9.90;;;4.63;;
7703;SDS011;3894;49.700;10.770;2022-07-29T14:50:08;8.57;;;4.45;;
7703;SDS011;3894;49.700;10.770;2022-07-29T14:52:34;7.45;;;4.30;;
7703;SDS011;3894;49.700;10.770;2022-07-29T14:55:00;7.25;;;4.45;;
7703;SDS011;3894;49.700;10.770;2022-07-29T14:57:26;7.65;;;4.32;;
7703;SDS011;3894;49.700;10.770;2022-07-29T14:59:51;8.48;;;4.35;;
7703;SDS011;3894;49.700;10.770;2022-07-29T15:02:17;7.60;;;4.15;;
7703;SDS011;3894;49.700;10.770;2022-07-29T15:04:43;6.07;;;3.90;;
7703;SDS011;3894;49.700;10.770;2022-07-29T15:07:10;8.88;;;4.10;;
7703;SDS011;3894;49.700;10.770;2022-07-29T15:09:36;6.25;;;4.28;;
7703;SDS011;3894;49.700;10.770;2022-07-29T15:12:02;6.90;;;4.28;;
7703;SDS011;3894;49.700;10.770;2022-07-29T15:14:28;7.15;;;4.22;;
7703;SDS011;3894;49.700;10.770;2022-07-29T15:16:53;7.20;;;4.38;;
7703;SDS011;3894;49.700;10.770;2022-07-29T15:19:19;7.22;;;4.28;;
7703;SDS011;3894;49.700;10.770;2022-07-29T15:21:44;7.15;;;4.85;;
7703;SDS011;3894;49.700;10.770;2022-07-29T15:24:10;7.43;;;4.82;;
7703;SDS011;3894;49.700;10.770;2022-07-29T15:26:35;7.68;;;4.70;;
7703;SDS011;3894;49.700;10.770;2022-07-29T15:29:01;8.75;;;4.70;;
7703;SDS011;3894;49.700;10.770;2022-07-29T15:31:27;8.00;;;3.90;;
7703;SDS011;3894;49.700;10.770;2022-07-29T15:33:52;7.75;;;3.92;;
7703;SDS011;3894;49.700;10.770;2022-07-29T15:36:18;10.48;;;4.22;;
7703;SDS011;3894;49.700;10.770;2022-07-29T15:38:43;5.03;;;2.97;;
7703;SDS011;3894;49.700;10.770;2022-07-29T15:41:12;5.05;;;2.78;;
7703;SDS011;3894;49.700;10.770;2022-07-29T15:43:42;9.00;;;3.70;;
7703;SDS011;3894;49.700;10.770;2022-07-29T15:46:12;8.00;;;3.35;;